sensor_id;sensor_type;location;lat;lon;timestamp;pressure;altitude;pressure_sealevel;temperature;humidity
16821;BME280;8527;49.740;6.604;2023-04-06T00:02:19;99976.38;;;2.01;76.17
16821;BME280;8527;49.740;6.604;2023-04-06T00:07:18;99973.16;;;1.98;77.01
16821;BME280;8527;49.740;6.604;2023-04-06T00:12:16;99968.91;;;2.08;77.72
16821;BME280;8527;49.740;6.604;2023-04-06T00:17:23;99961.44;;;1.90;77.68
16821;BME280;8527;49.740;6.604;2023-04-06T00:22:25;99964.03;;;1.90;77.83
16821;BME280;8527;49.740;6.604;2023-04-06T00:27:26;99973.25;;;1.83;77.98
16821;BME280;8527;49.740;6.604;2023-04-06T00:32:28;99963.31;;;1.88;78.19
16821;BME280;8527;49.740;6.604;2023-04-06T00:37:26;99957.38;;;1.73;77.86
16821;BME280;8527;49.740;6.604;2023-04-06T00:42:33;99960.09;;;1.59;78.74
16821;BME280;8527;49.740;6.604;2023-04-06T00:47:34;99949.66;;;1.46;79.12
16821;BME280;8527;49.740;6.604;2023-04-06T00:52:36;99946.19;;;1.45;79.34
16821;BME280;8527;49.740;6.604;2023-04-06T00:57:39;99940.66;;;1.37;79.51
16821;BME280;8527;49.740;6.604;2023-04-06T01:02:40;99934.41;;;1.26;80.40
16821;BME280;8527;49.740;6.604;2023-04-06T01:07:43;99932.91;;;1.22;78.53
16821;BME280;8527;49.740;6.604;2023-04-06T01:12:42;99927.81;;;1.21;81.08
16821;BME280;8527;49.740;6.604;2023-04-06T01:17:59;99928.84;;;1.18;81.26
16821;BME280;8527;49.740;6.604;2023-04-06T01:23:03;99927.78;;;1.08;80.33
16821;BME280;8527;49.740;6.604;2023-04-06T01:28:13;99929.88;;;1.03;79.30
16821;BME280;8527;49.740;6.604;2023-04-06T01:33:15;99930.28;;;0.96;80.91
16821;BME280;8527;49.740;6.604;2023-04-06T01:38:20;99916.06;;;1.01;81.43
16821;BME280;8527;49.740;6.604;2023-04-06T01:43:22;99921.38;;;0.86;82.20
16821;BME280;8527;49.740;6.604;2023-04-06T01:48:23;99923.16;;;0.86;82.14
16821;BME280;8527;49.740;6.604;2023-04-06T01:53:25;99924.06;;;0.72;81.32
16821;BME280;8527;49.740;6.604;2023-04-06T01:58:29;99918.75;;;0.73;83.36
16821;BME280;8527;49.740;6.604;2023-04-06T02:03:27;99914.41;;;0.59;81.40
16821;BME280;8527;49.740;6.604;2023-04-06T02:08:29;99909.59;;;0.53;82.23
16821;BME280;8527;49.740;6.604;2023-04-06T02:13:27;99910.09;;;0.45;82.37
16821;BME280;8527;49.740;6.604;2023-04-06T02:18:26;99913.53;;;0.46;83.14
16821;BME280;8527;49.740;6.604;2023-04-06T02:23:25;99907.81;;;0.53;83.43
16821;BME280;8527;49.740;6.604;2023-04-06T02:28:32;99904.97;;;0.44;82.94
16821;BME280;8527;49.740;6.604;2023-04-06T02:33:31;99910.28;;;0.42;83.22
16821;BME280;8527;49.740;6.604;2023-04-06T02:38:32;99912.28;;;0.38;83.75
16821;BME280;8527;49.740;6.604;2023-04-06T02:43:33;99909.97;;;0.34;83.99
16821;BME280;8527;49.740;6.604;2023-04-06T02:48:32;99906.91;;;0.27;83.72
16821;BME280;8527;49.740;6.604;2023-04-06T02:53:31;99899.75;;;0.16;83.44
16821;BME280;8527;49.740;6.604;2023-04-06T02:58:36;99900.88;;;0.12;84.37
16821;BME280;8527;49.740;6.604;2023-04-06T03:03:40;99896.97;;;0.19;84.75
16821;BME280;8527;49.740;6.604;2023-04-06T03:08:39;99902.34;;;0.16;84.01
16821;BME280;8527;49.740;6.604;2023-04-06T03:13:41;99899.41;;;0.08;84.97
16821;BME280;8527;49.740;6.604;2023-04-06T03:18:40;99893.72;;;0.16;85.96
16821;BME280;8527;49.740;6.604;2023-04-06T03:23:40;99894.56;;;0.02;84.96
16821;BME280;8527;49.740;6.604;2023-04-06T03:28:41;99894.78;;;-0.02;85.83
16821;BME280;8527;49.740;6.604;2023-04-06T03:33:48;99907.44;;;-0.10;86.32
16821;BME280;8527;49.740;6.604;2023-04-06T03:38:47;99906.91;;;-0.15;85.99
16821;BME280;8527;49.740;6.604;2023-04-06T03:43:54;99906.16;;;-0.17;85.48
16821;BME280;8527;49.740;6.604;2023-04-06T03:49:01;99911.19;;;-0.14;86.61
16821;BME280;8527;49.740;6.604;2023-04-06T03:54:00;99911.66;;;-0.22;85.74
16821;BME280;8527;49.740;6.604;2023-04-06T03:59:01;99911.22;;;-0.29;85.99
16821;BME280;8527;49.740;6.604;2023-04-06T04:03:59;99911.84;;;-0.39;86.26
16821;BME280;8527;49.740;6.604;2023-04-06T04:09:05;99919.19;;;-0.32;87.38
16821;BME280;8527;49.740;6.604;2023-04-06T04:14:06;99917.91;;;-0.39;87.08
16821;BME280;8527;49.740;6.604;2023-04-06T04:19:08;99924.88;;;-0.39;87.31
16821;BME280;8527;49.740;6.604;2023-04-06T04:24:07;99925.72;;;-0.39;88.53
16821;BME280;8527;49.740;6.604;2023-04-06T04:29:08;99928.81;;;-0.47;87.08
16821;BME280;8527;49.740;6.604;2023-04-06T04:34:07;99926.41;;;-0.50;87.82
16821;BME280;8527;49.740;6.604;2023-04-06T04:39:09;99931.78;;;-0.53;87.63
16821;BME280;8527;49.740;6.604;2023-04-06T04:44:10;99932.63;;;-0.52;87.95
16821;BME280;8527;49.740;6.604;2023-04-06T04:49:08;99933.81;;;-0.58;87.02
16821;BME280;8527;49.740;6.604;2023-04-06T04:54:10;99938.78;;;-0.53;88.21
16821;BME280;8527;49.740;6.604;2023-04-06T04:59:12;99927.88;;;-0.46;88.20
16821;BME280;8527;49.740;6.604;2023-04-06T05:04:11;99939.50;;;-0.37;88.95
16821;BME280;8527;49.740;6.604;2023-04-06T05:09:10;99932.81;;;-0.26;88.75
16821;BME280;8527;49.740;6.604;2023-04-06T05:14:11;99942.94;;;-0.22;87.80
16821;BME280;8527;49.740;6.604;2023-04-06T05:19:10;99937.53;;;-0.04;88.62
16821;BME280;8527;49.740;6.604;2023-04-06T05:24:09;99941.41;;;0.18;88.77
16821;BME280;8527;49.740;6.604;2023-04-06T05:29:11;99937.69;;;0.49;88.92
16821;BME280;8527;49.740;6.604;2023-04-06T05:34:13;99949.56;;;0.81;88.85
16821;BME280;8527;49.740;6.604;2023-04-06T05:39:11;99940.13;;;1.06;88.15
16821;BME280;8527;49.740;6.604;2023-04-06T05:44:13;99945.69;;;1.40;87.73
16821;BME280;8527;49.740;6.604;2023-04-06T05:49:12;99936.66;;;1.70;87.07
16821;BME280;8527;49.740;6.604;2023-04-06T05:54:10;99944.19;;;1.75;86.81
16821;BME280;8527;49.740;6.604;2023-04-06T05:59:15;99943.34;;;1.87;86.34
16821;BME280;8527;49.740;6.604;2023-04-06T06:04:15;99940.00;;;1.85;86.13
16821;BME280;8527;49.740;6.604;2023-04-06T06:09:14;99946.91;;;1.86;85.91
16821;BME280;8527;49.740;6.604;2023-04-06T06:14:16;99945.72;;;2.03;85.11
16821;BME280;8527;49.740;6.604;2023-04-06T06:19:15;99950.09;;;2.03;84.22
16821;BME280;8527;49.740;6.604;2023-04-06T06:24:27;99956.66;;;2.21;84.18
16821;BME280;8527;49.740;6.604;2023-04-06T06:29:31;99957.72;;;2.43;83.92
16821;BME280;8527;49.740;6.604;2023-04-06T06:34:30;99958.41;;;2.58;83.82
16821;BME280;8527;49.740;6.604;2023-04-06T06:39:37;99951.31;;;2.72;82.84
16821;BME280;8527;49.740;6.604;2023-04-06T06:44:39;99954.09;;;3.17;82.05
16821;BME280;8527;49.740;6.604;2023-04-06T06:49:42;99951.38;;;4.21;79.32
16821;BME280;8527;49.740;6.604;2023-04-06T06:54:44;99951.22;;;4.34;77.45
16821;BME280;8527;49.740;6.604;2023-04-06T06:59:45;99956.31;;;4.47;75.80
16821;BME280;8527;49.740;6.604;2023-04-06T07:04:43;99947.44;;;4.16;75.98
16821;BME280;8527;49.740;6.604;2023-04-06T07:09:45;99948.88;;;4.20;75.87
16821;BME280;8527;49.740;6.604;2023-04-06T07:14:47;99940.81;;;4.77;73.15
16821;BME280;8527;49.740;6.604;2023-04-06T07:19:50;99935.50;;;4.88;73.53
16821;BME280;8527;49.740;6.604;2023-04-06T07:24:49;99922.56;;;5.49;71.17
16821;BME280;8527;49.740;6.604;2023-04-06T07:29:53;99925.75;;;5.43;70.44
16821;BME280;8527;49.740;6.604;2023-04-06T07:34:53;99931.66;;;5.66;71.34
16821;BME280;8527;49.740;6.604;2023-04-06T07:39:52;99932.22;;;5.70;71.76
16821;BME280;8527;49.740;6.604;2023-04-06T07:44:56;99931.78;;;5.96;71.72
16821;BME280;8527;49.740;6.604;2023-04-06T07:49:54;99930.94;;;5.95;70.10
16821;BME280;8527;49.740;6.604;2023-04-06T07:54:53;99934.00;;;6.41;68.39
16821;BME280;8527;49.740;6.604;2023-04-06T07:59:52;99934.53;;;7.04;65.72
16821;BME280;8527;49.740;6.604;2023-04-06T08:04:53;99928.53;;;7.12;64.71
16821;BME280;8527;49.740;6.604;2023-04-06T08:09:54;99922.56;;;7.67;64.90
16821;BME280;8527;49.740;6.604;2023-04-06T08:14:56;99928.91;;;8.49;63.92
16821;BME280;8527;49.740;6.604;2023-04-06T08:19:57;99922.34;;;9.34;61.69
16821;BME280;8527;49.740;6.604;2023-04-06T08:25:00;99919.47;;;9.88;57.79
16821;BME280;8527;49.740;6.604;2023-04-06T08:29:59;99914.16;;;9.88;57.62
16821;BME280;8527;49.740;6.604;2023-04-06T08:35:00;99916.72;;;10.06;55.56
16821;BME280;8527;49.740;6.604;2023-04-06T08:39:59;99914.28;;;10.30;53.77
16821;BME280;8527;49.740;6.604;2023-04-06T08:45:03;99906.72;;;10.51;54.59
16821;BME280;8527;49.740;6.604;2023-04-06T08:50:06;99906.72;;;10.51;53.90
16821;BME280;8527;49.740;6.604;2023-04-06T08:55:07;99902.72;;;10.47;53.13
16821;BME280;8527;49.740;6.604;2023-04-06T09:00:08;99902.06;;;10.70;52.84
16821;BME280;8527;49.740;6.604;2023-04-06T09:05:13;99908.69;;;10.74;52.25
16821;BME280;8527;49.740;6.604;2023-04-06T09:10:12;99899.56;;;10.52;51.77
16821;BME280;8527;49.740;6.604;2023-04-06T09:15:18;99905.72;;;10.61;51.87
16821;BME280;8527;49.740;6.604;2023-04-06T09:20:25;99900.72;;;10.99;52.31
16821;BME280;8527;49.740;6.604;2023-04-06T09:25:25;99900.06;;;10.97;51.52
16821;BME280;8527;49.740;6.604;2023-04-06T09:30:24;99888.97;;;11.02;51.55
16821;BME280;8527;49.740;6.604;2023-04-06T09:35:28;99887.19;;;11.42;51.62
16821;BME280;8527;49.740;6.604;2023-04-06T09:40:26;99886.66;;;11.63;50.01
16821;BME280;8527;49.740;6.604;2023-04-06T09:45:26;99878.34;;;11.98;49.79
16821;BME280;8527;49.740;6.604;2023-04-06T09:50:30;99870.75;;;12.27;49.03
16821;BME280;8527;49.740;6.604;2023-04-06T09:55:36;99872.69;;;12.01;47.97
16821;BME280;8527;49.740;6.604;2023-04-06T10:00:43;99872.63;;;12.41;48.07
16821;BME280;8527;49.740;6.604;2023-04-06T10:05:48;99868.47;;;12.62;47.44
16821;BME280;8527;49.740;6.604;2023-04-06T10:10:50;99864.06;;;12.31;47.83
16821;BME280;8527;49.740;6.604;2023-04-06T10:15:54;99866.88;;;12.29;47.98
16821;BME280;8527;49.740;6.604;2023-04-06T10:21:00;99858.63;;;12.24;47.50
16821;BME280;8527;49.740;6.604;2023-04-06T10:26:03;99869.50;;;12.37;48.00
16821;BME280;8527;49.740;6.604;2023-04-06T10:31:12;99866.47;;;12.41;48.36
16821;BME280;8527;49.740;6.604;2023-04-06T10:36:14;99858.69;;;12.39;47.54
16821;BME280;8527;49.740;6.604;2023-04-06T10:41:17;99865.03;;;12.53;47.64
16821;BME280;8527;49.740;6.604;2023-04-06T10:46:24;99862.81;;;12.80;47.22
16821;BME280;8527;49.740;6.604;2023-04-06T10:51:27;99862.72;;;12.73;47.19
16821;BME280;8527;49.740;6.604;2023-04-06T10:56:29;99859.44;;;12.86;47.94
16821;BME280;8527;49.740;6.604;2023-04-06T11:01:30;99861.38;;;12.77;47.48
16821;BME280;8527;49.740;6.604;2023-04-06T11:06:32;99857.09;;;13.06;47.93
16821;BME280;8527;49.740;6.604;2023-04-06T11:11:33;99858.22;;;13.27;48.19
16821;BME280;8527;49.740;6.604;2023-04-06T11:16:37;99855.97;;;13.01;46.98
16821;BME280;8527;49.740;6.604;2023-04-06T11:21:39;99856.16;;;12.99;47.33
16821;BME280;8527;49.740;6.604;2023-04-06T11:26:40;99852.78;;;13.05;48.42
16821;BME280;8527;49.740;6.604;2023-04-06T11:31:40;99856.06;;;13.07;47.46
16821;BME280;8527;49.740;6.604;2023-04-06T11:36:45;99858.84;;;13.14;47.79
16821;BME280;8527;49.740;6.604;2023-04-06T11:41:47;99841.28;;;13.20;47.77
16821;BME280;8527;49.740;6.604;2023-04-06T11:46:52;99840.38;;;12.98;48.14
16821;BME280;8527;49.740;6.604;2023-04-06T11:51:53;99840.28;;;13.21;48.64
16821;BME280;8527;49.740;6.604;2023-04-06T11:56:51;99834.31;;;13.04;48.88
16821;BME280;8527;49.740;6.604;2023-04-06T12:01:52;99826.59;;;13.09;48.67
16821;BME280;8527;49.740;6.604;2023-04-06T12:06:54;99825.59;;;13.55;49.11
16821;BME280;8527;49.740;6.604;2023-04-06T12:11:52;99832.03;;;13.46;48.90
16821;BME280;8527;49.740;6.604;2023-04-06T12:16:54;99825.75;;;13.39;49.49
16821;BME280;8527;49.740;6.604;2023-04-06T12:21:55;99831.84;;;13.47;50.24
16821;BME280;8527;49.740;6.604;2023-04-06T12:26:55;99828.44;;;13.08;49.72
16821;BME280;8527;49.740;6.604;2023-04-06T12:31:54;99835.31;;;13.33;49.76
16821;BME280;8527;49.740;6.604;2023-04-06T12:36:58;99826.13;;;13.20;50.13
16821;BME280;8527;49.740;6.604;2023-04-06T12:41:56;99829.75;;;12.74;52.46
16821;BME280;8527;49.740;6.604;2023-04-06T12:46:55;99838.44;;;12.53;53.95
16821;BME280;8527;49.740;6.604;2023-04-06T12:51:56;99831.81;;;12.26;54.96
16821;BME280;8527;49.740;6.604;2023-04-06T12:56:55;99844.78;;;12.29;56.41
16821;BME280;8527;49.740;6.604;2023-04-06T13:01:56;99841.81;;;12.23;58.28
16821;BME280;8527;49.740;6.604;2023-04-06T13:07:00;99835.56;;;11.85;61.49
16821;BME280;8527;49.740;6.604;2023-04-06T13:11:59;99844.94;;;12.27;61.37
16821;BME280;8527;49.740;6.604;2023-04-06T13:16:59;99835.38;;;12.18;64.86
16821;BME280;8527;49.740;6.604;2023-04-06T13:22:00;99835.44;;;12.09;63.84
16821;BME280;8527;49.740;6.604;2023-04-06T13:26:59;99827.75;;;12.15;63.59
16821;BME280;8527;49.740;6.604;2023-04-06T13:31:58;99823.38;;;12.22;63.70
16821;BME280;8527;49.740;6.604;2023-04-06T13:37:00;99827.88;;;12.21;63.62
16821;BME280;8527;49.740;6.604;2023-04-06T13:42:01;99827.47;;;12.09;64.63
16821;BME280;8527;49.740;6.604;2023-04-06T13:47:00;99835.63;;;11.68;66.19
16821;BME280;8527;49.740;6.604;2023-04-06T13:52:01;99836.19;;;11.55;68.05
16821;BME280;8527;49.740;6.604;2023-04-06T13:56:59;99829.75;;;11.41;71.16
16821;BME280;8527;49.740;6.604;2023-04-06T14:02:03;99827.38;;;11.54;72.07
16821;BME280;8527;49.740;6.604;2023-04-06T14:07:08;99821.41;;;11.61;73.53
16821;BME280;8527;49.740;6.604;2023-04-06T14:12:09;99822.91;;;11.55;75.32
16821;BME280;8527;49.740;6.604;2023-04-06T14:17:07;99825.31;;;11.33;75.05
16821;BME280;8527;49.740;6.604;2023-04-06T14:22:08;99832.50;;;11.24;77.25
16821;BME280;8527;49.740;6.604;2023-04-06T14:27:10;99825.53;;;11.15;78.15
16821;BME280;8527;49.740;6.604;2023-04-06T14:32:11;99834.84;;;11.11;77.52
16821;BME280;8527;49.740;6.604;2023-04-06T14:37:16;99827.59;;;10.96;79.55
16821;BME280;8527;49.740;6.604;2023-04-06T14:42:17;99839.06;;;10.89;78.90
16821;BME280;8527;49.740;6.604;2023-04-06T14:47:15;99837.41;;;10.79;79.11
16821;BME280;8527;49.740;6.604;2023-04-06T14:52:18;99836.75;;;10.52;80.89
16821;BME280;8527;49.740;6.604;2023-04-06T14:57:17;99828.94;;;10.51;81.96
16821;BME280;8527;49.740;6.604;2023-04-06T15:02:18;99830.09;;;10.40;82.70
16821;BME280;8527;49.740;6.604;2023-04-06T15:07:25;99824.25;;;10.11;82.69
16821;BME280;8527;49.740;6.604;2023-04-06T15:12:26;99825.31;;;10.44;81.41
16821;BME280;8527;49.740;6.604;2023-04-06T15:17:28;99817.16;;;10.12;84.22
16821;BME280;8527;49.740;6.604;2023-04-06T15:22:29;99818.47;;;10.16;83.46
16821;BME280;8527;49.740;6.604;2023-04-06T15:27:28;99814.81;;;10.17;82.78
16821;BME280;8527;49.740;6.604;2023-04-06T15:32:30;99809.34;;;10.02;84.11
16821;BME280;8527;49.740;6.604;2023-04-06T15:37:33;99816.84;;;9.55;88.25
16821;BME280;8527;49.740;6.604;2023-04-06T15:42:31;99810.31;;;9.84;85.31
16821;BME280;8527;49.740;6.604;2023-04-06T15:47:30;99817.06;;;9.79;87.41
16821;BME280;8527;49.740;6.604;2023-04-06T15:52:28;99818.59;;;9.81;87.33
16821;BME280;8527;49.740;6.604;2023-04-06T15:57:29;99814.50;;;9.52;89.16
16821;BME280;8527;49.740;6.604;2023-04-06T16:02:28;99812.22;;;9.66;87.80
16821;BME280;8527;49.740;6.604;2023-04-06T16:07:28;99804.38;;;9.48;89.36
16821;BME280;8527;49.740;6.604;2023-04-06T16:12:29;99809.06;;;9.54;88.54
16821;BME280;8527;49.740;6.604;2023-04-06T16:17:30;99804.56;;;9.46;90.42
16821;BME280;8527;49.740;6.604;2023-04-06T16:22:31;99803.72;;;9.37;89.74
16821;BME280;8527;49.740;6.604;2023-04-06T16:27:33;99799.22;;;9.29;92.94
16821;BME280;8527;49.740;6.604;2023-04-06T16:32:31;99801.44;;;9.16;92.67
16821;BME280;8527;49.740;6.604;2023-04-06T16:37:30;99803.75;;;9.11;94.86
16821;BME280;8527;49.740;6.604;2023-04-06T16:42:29;99800.28;;;9.10;94.25
16821;BME280;8527;49.740;6.604;2023-04-06T16:47:30;99792.13;;;9.04;95.01
16821;BME280;8527;49.740;6.604;2023-04-06T16:52:29;99797.31;;;9.13;93.44
16821;BME280;8527;49.740;6.604;2023-04-06T16:57:28;99797.53;;;8.94;93.52
16821;BME280;8527;49.740;6.604;2023-04-06T17:02:30;99788.56;;;8.86;95.23
16821;BME280;8527;49.740;6.604;2023-04-06T17:07:31;99784.28;;;8.85;94.59
16821;BME280;8527;49.740;6.604;2023-04-06T17:12:30;99782.97;;;8.90;95.00
16821;BME280;8527;49.740;6.604;2023-04-06T17:17:31;99771.97;;;8.76;95.58
16821;BME280;8527;49.740;6.604;2023-04-06T17:22:29;99770.94;;;8.69;95.22
16821;BME280;8527;49.740;6.604;2023-04-06T17:27:28;99770.72;;;8.62;94.63
16821;BME280;8527;49.740;6.604;2023-04-06T17:32:27;99766.28;;;8.63;94.22
16821;BME280;8527;49.740;6.604;2023-04-06T17:37:28;99774.25;;;8.71;93.88
16821;BME280;8527;49.740;6.604;2023-04-06T17:42:26;99765.41;;;8.54;94.22
16821;BME280;8527;49.740;6.604;2023-04-06T17:47:25;99759.59;;;8.50;94.28
16821;BME280;8527;49.740;6.604;2023-04-06T17:52:29;99764.47;;;8.45;93.65
16821;BME280;8527;49.740;6.604;2023-04-06T17:57:27;99774.03;;;8.20;95.73
16821;BME280;8527;49.740;6.604;2023-04-06T18:02:26;99774.69;;;8.22;94.65
16821;BME280;8527;49.740;6.604;2023-04-06T18:07:30;99780.41;;;8.35;94.69
16821;BME280;8527;49.740;6.604;2023-04-06T18:12:29;99782.16;;;8.26;95.03
16821;BME280;8527;49.740;6.604;2023-04-06T18:17:27;99779.69;;;8.07;95.54
16821;BME280;8527;49.740;6.604;2023-04-06T18:22:33;99797.94;;;8.18;95.74
16821;BME280;8527;49.740;6.604;2023-04-06T18:27:36;99798.84;;;8.09;96.14
16821;BME280;8527;49.740;6.604;2023-04-06T18:32:34;99795.47;;;8.16;96.85
16821;BME280;8527;49.740;6.604;2023-04-06T18:37:38;99800.97;;;8.23;95.69
16821;BME280;8527;49.740;6.604;2023-04-06T18:42:36;99789.13;;;7.91;96.63
16821;BME280;8527;49.740;6.604;2023-04-06T18:47:38;99803.69;;;7.95;97.39
16821;BME280;8527;49.740;6.604;2023-04-06T18:52:41;99803.22;;;8.00;97.90
16821;BME280;8527;49.740;6.604;2023-04-06T18:57:40;99797.66;;;8.03;97.08
16821;BME280;8527;49.740;6.604;2023-04-06T19:02:41;99785.81;;;8.07;96.63
16821;BME280;8527;49.740;6.604;2023-04-06T19:07:42;99793.50;;;8.00;96.30
16821;BME280;8527;49.740;6.604;2023-04-06T19:12:46;99787.38;;;8.00;96.02
16821;BME280;8527;49.740;6.604;2023-04-06T19:17:44;99788.53;;;7.97;97.26
16821;BME280;8527;49.740;6.604;2023-04-06T19:22:46;99788.44;;;7.89;98.23
16821;BME280;8527;49.740;6.604;2023-04-06T19:27:45;99790.53;;;7.85;98.42
16821;BME280;8527;49.740;6.604;2023-04-06T19:32:43;99786.56;;;7.81;97.95
16821;BME280;8527;49.740;6.604;2023-04-06T19:37:52;99781.09;;;7.83;97.65
16821;BME280;8527;49.740;6.604;2023-04-06T19:42:50;99777.94;;;7.79;98.33
16821;BME280;8527;49.740;6.604;2023-04-06T19:47:50;99775.75;;;7.74;98.47
16821;BME280;8527;49.740;6.604;2023-04-06T19:52:52;99781.03;;;7.74;98.45
16821;BME280;8527;49.740;6.604;2023-04-06T19:57:53;99770.63;;;7.73;99.34
16821;BME280;8527;49.740;6.604;2023-04-06T20:02:53;99772.81;;;7.78;97.77
16821;BME280;8527;49.740;6.604;2023-04-06T20:07:56;99774.34;;;7.80;98.00
16821;BME280;8527;49.740;6.604;2023-04-06T20:12:55;99776.44;;;7.77;99.37
16821;BME280;8527;49.740;6.604;2023-04-06T20:17:55;99773.50;;;7.80;98.30
16821;BME280;8527;49.740;6.604;2023-04-06T20:22:57;99770.03;;;7.79;97.52
16821;BME280;8527;49.740;6.604;2023-04-06T20:27:58;99768.28;;;7.70;98.84
16821;BME280;8527;49.740;6.604;2023-04-06T20:32:57;99762.31;;;7.68;99.04
16821;BME280;8527;49.740;6.604;2023-04-06T20:38:00;99761.03;;;7.72;98.37
16821;BME280;8527;49.740;6.604;2023-04-06T20:42:59;99758.03;;;7.67;98.99
16821;BME280;8527;49.740;6.604;2023-04-06T20:47:58;99762.00;;;7.71;98.12
16821;BME280;8527;49.740;6.604;2023-04-06T20:52:59;99762.56;;;7.74;97.54
16821;BME280;8527;49.740;6.604;2023-04-06T20:57:58;99754.09;;;7.71;97.98
16821;BME280;8527;49.740;6.604;2023-04-06T21:02:56;99752.75;;;7.67;98.89
16821;BME280;8527;49.740;6.604;2023-04-06T21:07:57;99747.16;;;7.70;97.70
16821;BME280;8527;49.740;6.604;2023-04-06T21:13:01;99753.56;;;7.67;98.80
16821;BME280;8527;49.740;6.604;2023-04-06T21:17:59;99743.00;;;7.67;99.44
16821;BME280;8527;49.740;6.604;2023-04-06T21:23:01;99742.47;;;7.64;100.00
16821;BME280;8527;49.740;6.604;2023-04-06T21:28:08;99739.13;;;7.62;99.28
16821;BME280;8527;49.740;6.604;2023-04-06T21:33:06;99732.19;;;7.60;99.51
16821;BME280;8527;49.740;6.604;2023-04-06T21:38:05;99737.19;;;7.64;99.15
16821;BME280;8527;49.740;6.604;2023-04-06T21:43:03;99737.47;;;7.60;99.85
16821;BME280;8527;49.740;6.604;2023-04-06T21:48:07;99735.59;;;7.71;97.39
16821;BME280;8527;49.740;6.604;2023-04-06T21:53:06;99721.72;;;7.69;97.97
16821;BME280;8527;49.740;6.604;2023-04-06T21:58:04;99718.25;;;7.68;98.61
16821;BME280;8527;49.740;6.604;2023-04-06T22:03:03;99715.56;;;7.60;99.45
16821;BME280;8527;49.740;6.604;2023-04-06T22:08:13;99720.53;;;7.63;98.85
16821;BME280;8527;49.740;6.604;2023-04-06T22:13:11;99716.06;;;7.64;99.64
16821;BME280;8527;49.740;6.604;2023-04-06T22:18:11;99705.66;;;7.62;100.00
16821;BME280;8527;49.740;6.604;2023-04-06T22:23:12;99698.72;;;7.61;99.30
16821;BME280;8527;49.740;6.604;2023-04-06T22:28:10;99694.25;;;7.62;99.39
16821;BME280;8527;49.740;6.604;2023-04-06T22:33:09;99698.06;;;7.59;99.64
16821;BME280;8527;49.740;6.604;2023-04-06T22:38:16;99691.31;;;7.65;99.39
16821;BME280;8527;49.740;6.604;2023-04-06T22:43:15;99690.84;;;7.69;99.22
16821;BME280;8527;49.740;6.604;2023-04-06T22:48:16;99697.13;;;7.68;99.82
16821;BME280;8527;49.740;6.604;2023-04-06T22:53:23;99691.09;;;7.58;100.00
16821;BME280;8527;49.740;6.604;2023-04-06T22:58:24;99688.31;;;7.59;100.00
16821;BME280;8527;49.740;6.604;2023-04-06T23:03:25;99679.72;;;7.57;100.00
16821;BME280;8527;49.740;6.604;2023-04-06T23:08:26;99675.25;;;7.58;100.00
16821;BME280;8527;49.740;6.604;2023-04-06T23:13:25;99680.69;;;7.56;100.00
16821;BME280;8527;49.740;6.604;2023-04-06T23:18:23;99678.72;;;7.58;100.00
16821;BME280;8527;49.740;6.604;2023-04-06T23:23:22;99656.25;;;7.54;100.00
16821;BME280;8527;49.740;6.604;2023-04-06T23:28:23;99657.81;;;7.47;100.00
16821;BME280;8527;49.740;6.604;2023-04-06T23:33:21;99651.66;;;7.56;100.00
16821;BME280;8527;49.740;6.604;2023-04-06T23:38:21;99651.13;;;7.53;100.00
16821;BME280;8527;49.740;6.604;2023-04-06T23:43:19;99656.41;;;7.53;100.00
16821;BME280;8527;49.740;6.604;2023-04-06T23:48:21;99655.31;;;7.45;100.00
16821;BME280;8527;49.740;6.604;2023-04-06T23:53:19;99657.03;;;7.46;100.00
16821;BME280;8527;49.740;6.604;2023-04-06T23:58:17;99663.50;;;7.52;100.00
